Time;durP1;ratioP1;P1;durP2;ratioP2;P2;SDS_P1;SDS_P2;PMS_P1;PMS_P2;Temp;Humidity;BMP_temperature;BMP_pressure;BME280_temperature;BME280_humidity;BME280_pressure;Samples;Min_cycle;Max_cycle;Signal;HPM_P1;HPM_P2
2022/07/06 00:01:00;;;;;;;1.90;1.53;;;19.40;73.60;;;;;;5097674;28;20500;-53
2022/07/06 00:03:27;;;;;;;5.20;1.40;;;19.40;74.00;;;;;;5096556;28;20473;-46
2022/07/06 00:05:55;;;;;;;1.77;1.23;;;19.40;74.70;;;;;;5096022;28;20446;-54
2022/07/06 00:08:24;;;;;;;2.87;1.40;;;19.40;74.80;;;;;;5097581;28;20449;-51
2022/07/06 00:10:50;;;;;;;2.03;1.10;;;19.30;75.20;;;;;;5095167;28;20469;-46
2022/07/06 00:13:17;;;;;;;2.67;1.40;;;19.30;75.60;;;;;;5097739;28;20450;-52
2022/07/06 00:15:44;;;;;;;1.63;1.43;;;19.30;75.80;;;;;;5096582;28;20466;-58
2022/07/06 00:18:11;;;;;;;2.10;1.27;;;19.30;76.20;;;;;;5094971;28;20485;-53
2022/07/06 00:20:38;;;;;;;2.43;1.40;;;19.30;76.60;;;;;;5097889;28;20445;-52
2022/07/06 00:23:06;;;;;;;2.40;1.23;;;19.30;76.80;;;;;;5094643;28;20472;-51
2022/07/06 00:25:33;;;;;;;6.50;1.47;;;19.30;77.30;;;;;;5097386;28;20465;-49
2022/07/06 00:27:59;;;;;;;3.40;1.47;;;19.30;77.70;;;;;;5096007;28;20476;-52
2022/07/06 00:30:26;;;;;;;1.67;1.30;;;19.20;78.00;;;;;;5096407;28;20927;-41
2022/07/06 00:32:54;;;;;;;2.50;1.30;;;19.20;78.40;;;;;;5097564;28;20890;-48
2022/07/06 00:35:21;;;;;;;5.07;1.50;;;19.30;78.70;;;;;;5094536;28;20434;-52
2022/07/06 00:37:48;;;;;;;3.10;1.70;;;19.30;79.60;;;;;;5096589;28;20477;-48
2022/07/06 00:40:19;;;;;;;2.53;1.50;;;19.20;79.20;;;;;;5097223;28;20438;-54
2022/07/06 00:42:47;;;;;;;2.97;1.27;;;19.30;79.80;;;;;;5094843;28;20475;-42
2022/07/06 00:45:15;;;;;;;3.80;1.50;;;19.30;80.30;;;;;;5094121;28;20460;-52
2022/07/06 00:47:43;;;;;;;1.90;1.50;;;19.20;80.40;;;;;;5094744;28;20502;-54
2022/07/06 00:50:18;;;;;;;2.07;1.20;;;19.20;80.90;;;;;;5096237;28;20484;-48
2022/07/06 00:52:47;;;;;;;1.50;1.10;;;19.20;81.80;;;;;;5096868;28;20425;-57
2022/07/06 00:55:17;;;;;;;2.87;1.57;;;19.10;82.80;;;;;;5095970;28;20502;-50
2022/07/06 00:57:44;;;;;;;2.53;1.70;;;19.20;82.70;;;;;;5096618;28;20485;-54
2022/07/06 01:00:13;;;;;;;3.23;1.67;;;19.10;83.10;;;;;;5096187;28;20442;-50
2022/07/06 01:02:40;;;;;;;2.60;1.20;;;19.10;83.80;;;;;;5094993;28;20489;-49
2022/07/06 01:05:09;;;;;;;2.80;1.90;;;19.10;84.30;;;;;;5097464;28;20477;-46
2022/07/06 01:07:37;;;;;;;2.07;1.47;;;19.10;85.00;;;;;;5096236;28;20514;-50
2022/07/06 01:10:05;;;;;;;3.10;1.50;;;19.00;85.70;;;;;;5096536;28;20477;-48
2022/07/06 01:12:36;;;;;;;5.60;1.77;;;19.00;86.70;;;;;;5096549;28;20427;-47
2022/07/06 01:15:04;;;;;;;4.23;1.40;;;19.00;87.40;;;;;;5095812;28;20512;-52
2022/07/06 01:17:34;;;;;;;5.17;1.37;;;19.00;88.00;;;;;;5095761;28;20747;-43
2022/07/06 01:20:11;;;;;;;3.60;1.43;;;18.90;88.70;;;;;;5095631;28;20530;-51
2022/07/06 01:22:41;;;;;;;1.70;1.10;;;18.80;89.70;;;;;;5095297;28;20518;-48
2022/07/06 01:25:09;;;;;;;2.33;1.30;;;18.80;90.20;;;;;;5096996;28;20443;-45
2022/07/06 01:27:38;;;;;;;3.17;1.10;;;18.80;90.70;;;;;;5094483;28;20438;-47
2022/07/06 01:30:07;;;;;;;4.03;1.57;;;18.80;91.10;;;;;;5093192;28;20533;-48
2022/07/06 01:32:34;;;;;;;1.50;1.13;;;18.70;91.80;;;;;;5093518;28;20479;-46
2022/07/06 01:35:01;;;;;;;3.90;1.27;;;18.70;92.00;;;;;;5095499;28;20434;-49
2022/07/06 01:37:30;;;;;;;2.53;1.20;;;18.70;92.30;;;;;;5096131;28;20477;-45
2022/07/06 01:40:00;;;;;;;2.30;1.87;;;18.70;92.70;;;;;;5095155;28;20487;-52
2022/07/06 01:42:27;;;;;;;2.40;1.00;;;18.70;93.00;;;;;;5095575;28;20476;-46
2022/07/06 01:45:14;;;;;;;1.17;0.83;;;18.70;93.30;;;;;;5096454;28;20441;-51
2022/07/06 01:47:52;;;;;;;1.77;1.13;;;18.70;93.60;;;;;;5093962;28;20466;-47
2022/07/06 01:50:19;;;;;;;1.67;1.10;;;18.80;93.90;;;;;;5095641;28;20434;-48
2022/07/06 01:52:51;;;;;;;2.73;1.00;;;18.80;94.10;;;;;;5094697;28;20435;-49
2022/07/06 01:55:17;;;;;;;4.10;1.30;;;18.80;94.10;;;;;;5095468;28;20461;-51
2022/07/06 01:57:44;;;;;;;3.90;1.23;;;18.80;94.40;;;;;;5095704;28;20478;-51
2022/07/06 02:00:11;;;;;;;1.30;1.00;;;18.80;94.70;;;;;;5095408;28;20490;-51
2022/07/06 02:02:41;;;;;;;2.07;1.13;;;18.80;94.60;;;;;;5093194;28;20461;-45
2022/07/06 02:05:08;;;;;;;2.50;1.57;;;18.80;94.60;;;;;;5094079;28;20538;-40
2022/07/06 02:07:35;;;;;;;2.27;0.90;;;18.80;94.20;;;;;;5096085;28;20487;-50
2022/07/06 02:10:04;;;;;;;1.43;1.30;;;18.80;94.20;;;;;;5095973;28;20494;-48
2022/07/06 02:12:31;;;;;;;2.50;1.30;;;18.80;94.00;;;;;;5093763;28;20483;-56
2022/07/06 02:14:58;;;;;;;2.13;1.63;;;18.90;93.60;;;;;;5094959;28;20446;-49
2022/07/06 02:17:25;;;;;;;2.27;1.57;;;18.80;93.50;;;;;;5095237;28;20442;-40
2022/07/06 02:19:51;;;;;;;7.00;1.93;;;18.90;93.40;;;;;;5094379;28;20488;-46
2022/07/06 02:22:18;;;;;;;5.37;1.70;;;18.90;93.40;;;;;;5095016;28;20450;-54
2022/07/06 02:24:45;;;;;;;3.93;1.50;;;18.90;93.90;;;;;;5094621;28;20485;-49
2022/07/06 02:27:13;;;;;;;2.43;1.60;;;18.90;95.10;;;;;;5094180;28;20493;-57
2022/07/06 02:29:40;;;;;;;3.90;1.77;;;18.90;96.90;;;;;;5094823;28;20471;-51
2022/07/06 02:32:08;;;;;;;2.90;1.70;;;18.80;99.90;;;;;;5095137;28;20453;-48
2022/07/06 02:34:34;;;;;;;3.23;1.57;;;18.70;99.90;;;;;;5095494;28;20454;-58
2022/07/06 02:37:02;;;;;;;3.37;1.57;;;18.60;99.90;;;;;;5095284;28;20477;-43
2022/07/06 02:39:28;;;;;;;3.27;1.50;;;18.40;99.90;;;;;;5093133;28;20577;-49
2022/07/06 02:41:56;;;;;;;2.83;1.73;;;18.30;99.90;;;;;;5093909;28;20446;-48
2022/07/06 02:44:24;;;;;;;5.03;1.40;;;18.30;99.90;;;;;;5094110;28;20466;-43
2022/07/06 02:47:15;;;;;;;2.17;1.40;;;18.20;99.90;;;;;;5093778;28;20530;-49
2022/07/06 02:49:44;;;;;;;2.30;1.70;;;18.20;99.90;;;;;;5074981;28;20485;-52
2022/07/06 02:52:10;;;;;;;2.60;1.43;;;18.10;99.90;;;;;;5090625;28;20589;-46
2022/07/06 02:54:37;;;;;;;1.83;1.30;;;18.10;99.90;;;;;;5095283;28;20482;-50
2022/07/06 02:57:04;;;;;;;1.73;1.57;;;18.00;99.90;;;;;;5095428;28;20480;-56
2022/07/06 02:59:33;;;;;;;1.40;1.20;;;18.00;99.90;;;;;;5095042;28;20469;-58
2022/07/06 03:01:59;;;;;;;2.20;1.17;;;17.90;99.90;;;;;;5090864;28;20916;-50
2022/07/06 03:04:27;;;;;;;2.70;1.57;;;17.90;99.90;;;;;;5093128;28;20517;-39
2022/07/06 03:06:55;;;;;;;5.37;1.63;;;17.90;99.90;;;;;;5091126;28;20438;-38
2022/07/06 03:09:22;;;;;;;2.03;1.30;;;17.80;99.90;;;;;;5092803;28;20414;-54
2022/07/06 03:11:49;;;;;;;3.13;1.80;;;17.80;99.90;;;;;;5092679;28;20510;-55
2022/07/06 03:14:16;;;;;;;2.00;1.60;;;17.80;99.90;;;;;;5092801;28;20466;-51
2022/07/06 03:16:45;;;;;;;2.30;1.50;;;17.80;99.90;;;;;;5094494;28;20501;-51
2022/07/06 03:19:13;;;;;;;4.30;1.47;;;17.70;99.90;;;;;;5093514;28;20542;-58
2022/07/06 03:21:40;;;;;;;1.97;1.20;;;17.70;99.90;;;;;;5094305;28;20415;-53
2022/07/06 03:24:07;;;;;;;4.20;1.80;;;17.80;99.90;;;;;;5093251;28;20470;-43
2022/07/06 03:26:34;;;;;;;3.00;1.80;;;17.70;99.90;;;;;;5093365;28;20581;-54
2022/07/06 03:29:01;;;;;;;3.13;1.47;;;17.70;99.90;;;;;;5092583;28;20418;-49
2022/07/06 03:31:28;;;;;;;2.40;1.97;;;17.60;99.90;;;;;;5093953;28;20450;-51
2022/07/06 03:33:56;;;;;;;1.80;1.40;;;17.60;99.90;;;;;;5090311;28;20521;-55
2022/07/06 03:36:25;;;;;;;1.60;1.37;;;17.60;99.90;;;;;;5092306;28;20495;-48
2022/07/06 03:38:52;;;;;;;1.67;1.47;;;17.50;99.90;;;;;;5090649;28;20545;-55
2022/07/06 03:41:19;;;;;;;2.80;1.97;;;17.50;99.90;;;;;;5092403;28;20454;-50
2022/07/06 03:43:46;;;;;;;1.87;1.33;;;17.50;99.90;;;;;;5092379;28;20454;-51
2022/07/06 03:46:17;;;;;;;3.27;1.50;;;17.50;99.90;;;;;;5091820;28;20754;-41
2022/07/06 03:48:43;;;;;;;2.87;2.67;;;17.50;99.90;;;;;;5091375;28;20431;-48
2022/07/06 03:51:11;;;;;;;7.13;1.70;;;17.50;99.90;;;;;;5093646;28;20472;-44
2022/07/06 03:53:43;;;;;;;1.80;1.50;;;17.50;99.90;;;;;;5094640;28;21092;-47
2022/07/06 03:58:54;;;;;;;2.63;1.40;;;17.50;99.90;;;;;;5043660;28;20522;-46
2022/07/06 04:01:21;;;;;;;2.30;1.77;;;17.50;99.90;;;;;;5037581;28;20455;-47
2022/07/06 04:03:47;;;;;;;2.97;1.60;;;17.50;99.90;;;;;;5039704;28;20467;-48
2022/07/06 04:06:16;;;;;;;1.30;1.20;;;17.50;99.90;;;;;;5039600;28;20447;-49
2022/07/06 04:08:42;;;;;;;6.97;1.07;;;17.50;99.90;;;;;;5041125;28;20479;-46
2022/07/06 04:11:09;;;;;;;3.60;1.50;;;17.50;99.90;;;;;;5041609;28;20445;-47
2022/07/06 04:13:36;;;;;;;5.73;1.77;;;17.50;99.90;;;;;;5041664;28;20479;-43
2022/07/06 04:16:04;;;;;;;2.07;1.50;;;17.50;99.90;;;;;;5041120;28;20555;-48
2022/07/06 04:18:31;;;;;;;3.20;1.63;;;17.50;99.90;;;;;;5040469;28;20502;-50
2022/07/06 04:20:58;;;;;;;4.03;2.00;;;17.50;99.90;;;;;;5039371;28;20540;-49
2022/07/06 04:23:29;;;;;;;2.67;1.50;;;17.50;99.90;;;;;;5039889;28;20448;-47
2022/07/06 04:26:01;;;;;;;4.13;2.07;;;17.50;99.90;;;;;;5040161;28;20514;-48
2022/07/06 04:28:29;;;;;;;3.33;1.70;;;17.60;99.90;;;;;;5039203;28;20471;-55
2022/07/06 04:30:57;;;;;;;2.87;1.53;;;17.60;99.90;;;;;;5041433;28;20515;-51
2022/07/06 04:33:23;;;;;;;2.47;1.20;;;17.60;99.90;;;;;;5039120;28;20506;-54
2022/07/06 04:35:50;;;;;;;6.03;1.27;;;17.60;99.90;;;;;;5042341;28;20432;-47
2022/07/06 04:38:17;;;;;;;2.60;1.57;;;17.60;99.90;;;;;;5042359;28;20540;-48
2022/07/06 04:40:47;;;;;;;3.67;1.53;;;17.60;99.90;;;;;;5042832;28;20455;-46
2022/07/06 04:43:15;;;;;;;3.03;1.30;;;17.60;99.90;;;;;;5043164;28;20991;-52
2022/07/06 04:45:44;;;;;;;1.60;1.07;;;17.60;99.90;;;;;;5043527;28;20541;-50
2022/07/06 04:48:11;;;;;;;2.90;1.50;;;17.60;99.90;;;;;;5044035;28;20431;-48
2022/07/06 04:50:38;;;;;;;1.90;1.60;;;17.50;99.90;;;;;;5044028;28;20479;-54
2022/07/06 04:53:05;;;;;;;4.73;1.73;;;17.50;99.90;;;;;;5050743;28;20476;-50
2022/07/06 04:55:32;;;;;;;2.43;1.40;;;17.50;99.90;;;;;;5055924;28;20524;-49
2022/07/06 04:58:00;;;;;;;3.27;1.67;;;17.50;99.90;;;;;;5053761;28;20468;-46
2022/07/06 05:00:29;;;;;;;2.43;1.60;;;17.50;99.90;;;;;;5046472;28;20468;-51
2022/07/06 05:02:56;;;;;;;2.03;1.23;;;17.60;99.90;;;;;;5047880;28;20491;-48
2022/07/06 05:05:34;;;;;;;4.80;1.60;;;17.50;99.90;;;;;;5056237;28;20459;-48
2022/07/06 05:08:01;;;;;;;3.40;1.77;;;17.50;99.90;;;;;;5053324;28;20448;-48
2022/07/06 05:10:27;;;;;;;2.63;1.80;;;17.60;99.90;;;;;;5051345;28;20474;-48
2022/07/06 05:12:56;;;;;;;2.00;1.20;;;17.60;99.90;;;;;;5051444;28;20470;-51
2022/07/06 05:15:24;;;;;;;4.60;1.83;;;17.70;99.90;;;;;;5054845;28;20452;-47
2022/07/06 05:17:52;;;;;;;4.03;1.47;;;17.80;99.90;;;;;;5055222;28;20516;-45
2022/07/06 05:20:21;;;;;;;1.87;1.27;;;17.80;99.90;;;;;;5074230;28;20467;-46
2022/07/06 05:22:48;;;;;;;3.23;1.60;;;17.80;99.90;;;;;;5071467;28;20459;-49
2022/07/06 05:25:15;;;;;;;4.80;2.27;;;17.80;99.90;;;;;;5072738;28;20447;-49
2022/07/06 05:27:44;;;;;;;1.87;1.30;;;17.80;99.90;;;;;;5076560;28;20495;-44
2022/07/06 05:30:12;;;;;;;2.00;1.60;;;17.80;99.90;;;;;;5076538;28;20463;-46
2022/07/06 05:32:40;;;;;;;3.30;1.73;;;17.70;99.90;;;;;;5076731;28;20444;-48
2022/07/06 05:35:11;;;;;;;5.00;1.37;;;17.80;99.90;;;;;;5076354;28;20470;-45
2022/07/06 05:37:38;;;;;;;4.00;2.03;;;17.80;99.90;;;;;;5073085;28;20518;-51
2022/07/06 05:40:08;;;;;;;2.43;1.70;;;17.80;99.90;;;;;;5073834;28;20551;-50
2022/07/06 05:42:35;;;;;;;5.07;1.67;;;17.80;99.90;;;;;;5076323;28;20540;-45
2022/07/06 05:45:04;;;;;;;8.73;1.57;;;17.80;99.90;;;;;;5076086;28;20447;-46
2022/07/06 05:50:17;;;;;;;2.77;1.40;;;17.70;99.90;;;;;;5073302;28;20458;-50
2022/07/06 05:52:55;;;;;;;2.90;1.50;;;17.80;99.90;;;;;;5076029;28;20471;-46
2022/07/06 05:55:22;;;;;;;2.33;1.70;;;17.90;99.90;;;;;;5076070;28;20469;-50
2022/07/06 05:57:50;;;;;;;3.30;1.70;;;17.90;99.90;;;;;;5074207;28;20800;-42
2022/07/06 06:00:17;;;;;;;4.90;1.57;;;17.90;99.90;;;;;;5073596;28;20499;-41
2022/07/06 06:02:44;;;;;;;2.53;1.50;;;17.90;99.90;;;;;;5075041;28;20450;-42
2022/07/06 06:05:12;;;;;;;2.77;1.57;;;18.00;99.90;;;;;;5074132;28;20451;-44
2022/07/06 06:07:41;;;;;;;4.03;1.60;;;18.10;99.90;;;;;;5075123;28;20467;-49
2022/07/06 06:10:13;;;;;;;3.03;1.43;;;18.10;99.90;;;;;;5074990;28;20451;-41
2022/07/06 06:12:40;;;;;;;4.07;1.70;;;18.10;99.90;;;;;;5075525;28;20501;-41
2022/07/06 06:15:08;;;;;;;4.80;1.70;;;18.10;99.90;;;;;;5074392;28;20462;-34
2022/07/06 06:17:37;;;;;;;3.30;1.50;;;18.20;99.90;;;;;;5076007;28;20467;-52
2022/07/06 06:20:06;;;;;;;6.70;1.83;;;18.30;99.90;;;;;;5074749;28;20475;-45
2022/07/06 06:22:33;;;;;;;3.47;1.23;;;18.40;99.90;;;;;;5075032;28;20447;-42
2022/07/06 06:25:01;;;;;;;2.47;1.50;;;18.50;99.90;;;;;;5075000;28;20471;-41
2022/07/06 06:27:28;;;;;;;3.50;2.03;;;18.50;99.90;;;;;;5075022;28;20478;-45
2022/07/06 06:29:55;;;;;;;3.13;1.80;;;18.60;99.90;;;;;;5074905;28;20450;-48
2022/07/06 06:32:21;;;;;;;4.63;2.10;;;18.70;99.90;;;;;;5075221;28;20440;-48
2022/07/06 06:34:48;;;;;;;7.77;1.57;;;18.80;99.90;;;;;;5074977;28;20439;-44
2022/07/06 06:37:15;;;;;;;3.33;1.30;;;18.80;99.90;;;;;;5074174;28;20539;-47
2022/07/06 06:39:42;;;;;;;2.10;1.53;;;18.90;99.90;;;;;;5074957;28;20503;-41
2022/07/06 06:42:10;;;;;;;4.07;1.30;;;18.90;99.90;;;;;;5074750;28;20445;-51
2022/07/06 06:44:37;;;;;;;1.83;1.40;;;18.90;99.90;;;;;;5074539;28;20452;-41
2022/07/06 06:47:04;;;;;;;2.70;1.60;;;18.90;99.90;;;;;;5074921;28;20447;-47
2022/07/06 06:49:31;;;;;;;1.97;1.30;;;18.70;99.90;;;;;;5074672;28;20482;-41
2022/07/06 06:51:57;;;;;;;3.97;1.90;;;18.70;99.90;;;;;;5074730;28;20447;-47
2022/07/06 06:54:24;;;;;;;4.50;1.53;;;18.60;99.90;;;;;;5075437;28;20466;-49
2022/07/06 06:56:51;;;;;;;2.80;1.60;;;18.50;99.90;;;;;;5073855;28;20550;-49
2022/07/06 06:59:19;;;;;;;2.40;1.43;;;18.40;99.90;;;;;;5074526;28;20486;-43
2022/07/06 07:01:46;;;;;;;1.73;1.40;;;18.50;99.90;;;;;;5074298;28;20470;-45
2022/07/06 07:04:13;;;;;;;3.90;1.37;;;18.60;99.90;;;;;;5073667;28;20467;-49
2022/07/06 07:06:40;;;;;;;1.83;1.53;;;18.80;99.90;;;;;;5074124;28;20447;-45
2022/07/06 07:09:07;;;;;;;1.50;1.10;;;19.00;99.90;;;;;;5074173;28;20469;-52
2022/07/06 07:11:34;;;;;;;6.03;1.67;;;19.30;99.90;;;;;;5074174;28;20439;-47
2022/07/06 07:14:03;;;;;;;2.77;1.30;;;19.60;99.90;;;;;;5073707;28;20482;-52
2022/07/06 07:16:31;;;;;;;3.77;1.40;;;19.70;99.90;;;;;;5073962;28;20439;-49
2022/07/06 07:18:58;;;;;;;5.47;1.47;;;20.00;99.90;;;;;;5074484;28;20490;-40
2022/07/06 07:21:25;;;;;;;2.07;1.37;;;20.20;99.90;;;;;;5074204;28;20531;-49
2022/07/06 07:23:51;;;;;;;2.27;1.90;;;20.60;99.90;;;;;;5074797;28;20499;-51
2022/07/06 07:26:19;;;;;;;4.60;1.67;;;21.20;99.90;;;;;;5074569;28;20470;-45
2022/07/06 07:28:46;;;;;;;2.33;1.50;;;21.10;99.90;;;;;;5074538;28;20457;-41
2022/07/06 07:31:13;;;;;;;3.70;1.60;;;21.20;99.90;;;;;;5074669;28;20473;-48
2022/07/06 07:33:44;;;;;;;2.40;1.30;;;21.90;99.90;;;;;;5073659;28;20424;-45
2022/07/06 07:36:10;;;;;;;2.97;1.63;;;22.60;99.90;;;;;;5074697;28;20431;-49
2022/07/06 07:38:37;;;;;;;2.63;1.10;;;22.50;99.90;;;;;;5074170;28;20474;-47
2022/07/06 07:41:05;;;;;;;2.90;1.43;;;22.20;99.70;;;;;;5074535;28;20487;-49
2022/07/06 07:43:32;;;;;;;5.30;1.93;;;21.90;99.50;;;;;;5074687;28;20478;-50
2022/07/06 07:45:59;;;;;;;4.47;1.43;;;21.50;99.70;;;;;;5073967;28;20435;-47
2022/07/06 07:48:26;;;;;;;4.33;1.33;;;21.00;99.20;;;;;;5074174;28;20490;-42
2022/07/06 07:50:54;;;;;;;1.70;1.57;;;20.80;99.30;;;;;;5074021;28;20486;-49
2022/07/06 07:53:21;;;;;;;7.83;1.40;;;21.40;98.30;;;;;;5073738;28;20485;-53
2022/07/06 07:55:50;;;;;;;2.03;1.40;;;22.90;95.80;;;;;;5073216;28;20574;-49
2022/07/06 07:58:17;;;;;;;2.70;1.57;;;23.80;93.10;;;;;;5074401;28;20475;-42
2022/07/06 08:00:45;;;;;;;2.80;1.33;;;24.10;91.20;;;;;;5074124;28;20531;-50
2022/07/06 08:03:12;;;;;;;5.50;1.70;;;23.80;90.80;;;;;;5074404;28;20472;-47
2022/07/06 08:05:39;;;;;;;2.70;1.63;;;23.70;89.80;;;;;;5074265;28;20771;-49
2022/07/06 08:08:07;;;;;;;2.80;1.37;;;23.80;90.20;;;;;;5074565;28;20443;-48
2022/07/06 08:10:34;;;;;;;2.83;1.30;;;24.20;89.30;;;;;;5076640;28;20430;-51
2022/07/06 08:13:01;;;;;;;3.77;1.50;;;24.70;86.00;;;;;;5077573;28;20455;-52
2022/07/06 08:15:28;;;;;;;2.00;1.30;;;24.70;84.00;;;;;;5078898;28;20495;-49
2022/07/06 08:17:55;;;;;;;2.20;1.40;;;25.00;80.00;;;;;;5078030;28;20436;-44
2022/07/06 08:20:22;;;;;;;3.93;1.30;;;25.00;77.80;;;;;;5077575;28;20483;-46
2022/07/06 08:22:49;;;;;;;1.50;1.10;;;24.60;78.00;;;;;;5077385;28;20483;-50
2022/07/06 08:25:17;;;;;;;1.47;1.37;;;24.50;79.10;;;;;;5077609;28;20467;-45
2022/07/06 08:27:44;;;;;;;4.87;1.37;;;24.60;78.10;;;;;;5076957;28;20446;-53
2022/07/06 08:30:12;;;;;;;2.30;1.20;;;25.00;77.10;;;;;;5076949;28;20447;-52
2022/07/06 08:32:39;;;;;;;2.20;1.03;;;26.00;74.20;;;;;;5077170;28;20451;-47
2022/07/06 08:35:10;;;;;;;2.67;1.17;;;26.50;72.30;;;;;;5077142;28;20493;-50
2022/07/06 08:37:36;;;;;;;3.47;1.47;;;26.10;71.00;;;;;;5077213;28;20463;-51
2022/07/06 08:40:04;;;;;;;1.13;0.77;;;25.40;71.30;;;;;;5077123;28;20487;-51
2022/07/06 08:42:35;;;;;;;1.20;1.00;;;25.50;70.40;;;;;;5077181;28;20442;-51
2022/07/06 08:45:03;;;;;;;2.40;1.20;;;25.90;68.10;;;;;;5077621;28;20471;-53
2022/07/06 08:47:31;;;;;;;1.47;1.20;;;25.60;66.10;;;;;;5077309;28;20459;-59
2022/07/06 08:49:59;;;;;;;1.37;0.90;;;24.50;66.40;;;;;;5076970;28;20484;-48
2022/07/06 08:52:26;;;;;;;1.90;1.20;;;23.80;69.10;;;;;;5077102;28;20474;-47
2022/07/06 08:54:53;;;;;;;2.40;1.30;;;23.20;71.40;;;;;;5077226;28;20483;-53
2022/07/06 08:57:20;;;;;;;2.60;1.10;;;22.50;74.00;;;;;;5076253;28;20451;-51
2022/07/06 08:59:48;;;;;;;4.13;1.07;;;22.30;76.30;;;;;;5075874;28;20463;-52
2022/07/06 09:02:15;;;;;;;1.47;0.93;;;22.80;75.60;;;;;;5076657;28;20450;-50
2022/07/06 09:04:44;;;;;;;1.10;0.90;;;23.00;74.10;;;;;;5076538;28;20462;-51
2022/07/06 09:07:11;;;;;;;6.70;2.53;;;22.90;73.90;;;;;;5076542;28;20439;-46
2022/07/06 09:09:40;;;;;;;1.60;1.13;;;22.70;74.30;;;;;;5077258;28;20483;-49
2022/07/06 09:12:12;;;;;;;1.20;1.00;;;22.20;75.10;;;;;;5077516;28;20423;-45
2022/07/06 09:14:39;;;;;;;1.97;1.77;;;21.70;76.60;;;;;;5077012;28;20463;-52
2022/07/06 09:17:08;;;;;;;2.63;1.20;;;21.40;77.30;;;;;;5076883;28;20434;-49
2022/07/06 09:19:35;;;;;;;1.90;1.23;;;20.90;77.70;;;;;;5076909;28;20512;-47
2022/07/06 09:22:06;;;;;;;3.73;1.17;;;20.70;78.90;;;;;;5076701;28;20524;-50
2022/07/06 09:24:33;;;;;;;4.10;1.33;;;20.50;76.40;;;;;;5076908;28;20491;-49
2022/07/06 09:27:00;;;;;;;1.80;1.20;;;20.50;74.20;;;;;;5076899;28;20412;-50
2022/07/06 09:29:30;;;;;;;1.70;1.00;;;20.40;75.20;;;;;;5076691;28;20443;-47
2022/07/06 09:31:58;;;;;;;1.20;0.90;;;20.50;74.80;;;;;;5076820;28;20455;-52
2022/07/06 09:34:42;;;;;;;1.53;0.90;;;20.70;74.50;;;;;;5076705;28;20479;-43
2022/07/06 09:37:09;;;;;;;1.27;0.93;;;21.00;74.50;;;;;;5076551;28;20491;-45
2022/07/06 09:39:37;;;;;;;4.87;0.90;;;21.20;73.30;;;;;;5076479;28;20479;-45
2022/07/06 09:42:07;;;;;;;2.40;0.90;;;21.30;73.30;;;;;;5076614;28;20531;-46
2022/07/06 09:44:36;;;;;;;1.37;0.90;;;21.20;71.80;;;;;;5076555;28;20436;-50
2022/07/06 09:47:05;;;;;;;3.37;0.97;;;21.20;72.10;;;;;;5076254;28;20530;-46
2022/07/06 09:49:34;;;;;;;3.00;1.67;;;21.40;73.60;;;;;;5076431;28;20451;-50
2022/07/06 09:52:02;;;;;;;3.10;0.80;;;21.50;72.10;;;;;;5075437;28;20431;-53
2022/07/06 09:54:29;;;;;;;2.10;1.03;;;21.40;71.60;;;;;;5075124;28;20474;-49
2022/07/06 09:56:57;;;;;;;1.30;1.03;;;21.40;72.10;;;;;;5075429;28;20448;-52
2022/07/06 09:59:28;;;;;;;1.57;0.90;;;21.20;72.50;;;;;;5075041;28;20506;-46
2022/07/06 10:01:56;;;;;;;2.70;0.90;;;21.10;71.50;;;;;;5075031;28;20497;-50
2022/07/06 10:04:24;;;;;;;1.57;0.93;;;21.10;72.00;;;;;;5075040;28;20515;-49
2022/07/06 10:06:52;;;;;;;2.93;1.30;;;21.10;73.10;;;;;;5075056;28;20447;-54
2022/07/06 10:09:23;;;;;;;4.13;0.90;;;21.20;73.40;;;;;;5075515;28;20435;-48
2022/07/06 10:11:51;;;;;;;1.90;0.77;;;21.20;73.40;;;;;;5075759;28;20507;-46
2022/07/06 10:14:21;;;;;;;1.77;0.90;;;21.10;73.40;;;;;;5076158;28;20461;-42
2022/07/06 10:16:49;;;;;;;2.17;1.00;;;21.10;71.70;;;;;;5076009;28;20462;-45
2022/07/06 10:19:22;;;;;;;2.70;1.20;;;21.00;73.30;;;;;;5076090;28;20434;-43
2022/07/06 10:21:49;;;;;;;2.60;0.90;;;20.90;74.60;;;;;;5075336;28;20487;-47
2022/07/06 10:24:19;;;;;;;2.40;0.93;;;20.80;74.60;;;;;;5076034;28;20471;-45
2022/07/06 10:26:47;;;;;;;3.60;1.00;;;20.90;74.70;;;;;;5075927;28;20451;-44
2022/07/06 10:29:16;;;;;;;1.20;0.80;;;20.90;75.60;;;;;;5075755;28;20494;-46
2022/07/06 10:31:46;;;;;;;1.93;1.17;;;20.90;75.50;;;;;;5075121;28;20459;-58
2022/07/06 10:34:15;;;;;;;1.50;0.90;;;20.90;77.00;;;;;;5075727;28;20427;-48
2022/07/06 10:36:44;;;;;;;2.70;1.00;;;20.90;77.70;;;;;;5075075;28;20487;-58
2022/07/06 10:41:57;;;;;;;2.70;1.20;;;21.30;77.90;;;;;;5075754;28;20509;-54
2022/07/06 10:44:25;;;;;;;4.87;0.80;;;21.40;77.40;;;;;;5074675;28;20455;-50
2022/07/06 10:46:54;;;;;;;2.23;1.10;;;21.40;77.70;;;;;;5074667;28;20621;-49
2022/07/06 10:49:21;;;;;;;2.10;0.87;;;21.50;78.40;;;;;;5075233;28;20439;-44
2022/07/06 10:51:49;;;;;;;1.23;0.90;;;21.60;78.00;;;;;;5075188;28;20463;-50
2022/07/06 10:54:17;;;;;;;1.30;0.90;;;21.60;77.40;;;;;;5075159;28;20447;-51
2022/07/06 10:56:46;;;;;;;2.70;1.00;;;21.90;76.30;;;;;;5074091;28;20539;-46
2022/07/06 10:59:15;;;;;;;2.30;1.00;;;22.30;76.40;;;;;;5074107;28;20452;-49
2022/07/06 11:01:44;;;;;;;3.43;1.47;;;22.90;73.50;;;;;;5074457;28;20503;-49
2022/07/06 11:04:11;;;;;;;1.20;0.90;;;23.10;70.60;;;;;;5074576;28;20458;-50
2022/07/06 11:06:40;;;;;;;1.90;0.90;;;23.30;69.60;;;;;;5074417;28;20550;-51
2022/07/06 11:09:10;;;;;;;2.80;1.10;;;23.30;68.60;;;;;;5074738;28;20460;-45
2022/07/06 11:11:43;;;;;;;1.30;0.97;;;23.40;67.40;;;;;;5074216;28;20471;-49
2022/07/06 11:14:11;;;;;;;1.83;1.10;;;23.60;66.90;;;;;;5073677;28;20463;-44
2022/07/06 11:17:00;;;;;;;1.50;1.00;;;23.60;68.00;;;;;;5073492;28;20497;-50
2022/07/06 11:19:28;;;;;;;1.30;1.07;;;23.90;66.60;;;;;;5073621;28;20448;-49
2022/07/06 11:21:59;;;;;;;3.90;1.43;;;23.80;66.50;;;;;;5074032;28;20525;-45
2022/07/06 11:24:27;;;;;;;1.10;0.80;;;23.50;67.60;;;;;;5074425;28;20463;-45
2022/07/06 11:26:58;;;;;;;1.53;0.97;;;23.30;68.40;;;;;;5074651;28;20451;-58
2022/07/06 11:29:27;;;;;;;1.23;0.90;;;23.00;69.40;;;;;;5073736;28;20447;-48
2022/07/06 11:31:58;;;;;;;3.43;1.10;;;22.60;71.10;;;;;;5073925;28;20502;-47
2022/07/06 11:34:27;;;;;;;1.30;1.10;;;22.30;73.30;;;;;;5074213;28;20423;-46
2022/07/06 11:36:58;;;;;;;1.60;1.00;;;22.10;74.10;;;;;;5073779;28;20463;-48
2022/07/06 11:39:28;;;;;;;2.43;1.00;;;22.00;74.00;;;;;;5073752;28;20486;-50
2022/07/06 11:41:55;;;;;;;1.47;1.17;;;21.80;74.30;;;;;;5073652;28;20490;-47
2022/07/06 11:44:22;;;;;;;1.63;1.10;;;21.70;74.70;;;;;;5076688;28;20455;-53
2022/07/06 11:46:50;;;;;;;1.30;0.90;;;21.60;75.30;;;;;;5077745;28;20535;-54
2022/07/06 11:49:19;;;;;;;1.30;0.80;;;21.80;75.90;;;;;;5077855;28;20474;-50
2022/07/06 11:51:47;;;;;;;2.80;1.10;;;21.80;74.50;;;;;;5078069;28;20423;-51
2022/07/06 11:54:15;;;;;;;5.33;1.20;;;21.90;73.90;;;;;;5077633;28;20483;-51
2022/07/06 11:56:47;;;;;;;3.33;1.03;;;21.90;74.70;;;;;;5077680;28;20466;-50
2022/07/06 11:59:16;;;;;;;1.20;0.87;;;21.90;74.20;;;;;;5078238;28;20459;-49
2022/07/06 12:01:44;;;;;;;1.90;0.93;;;21.90;72.90;;;;;;5077664;28;20511;-46
2022/07/06 12:04:11;;;;;;;1.63;0.80;;;21.90;73.80;;;;;;5078239;28;20481;-44
2022/07/06 12:06:39;;;;;;;2.90;1.20;;;22.20;73.00;;;;;;5078549;28;20526;-51
2022/07/06 12:09:06;;;;;;;3.27;0.80;;;22.50;72.70;;;;;;5078167;28;20443;-43
2022/07/06 12:11:35;;;;;;;1.90;1.00;;;22.90;70.80;;;;;;5078308;28;20768;-49
2022/07/06 12:14:04;;;;;;;2.10;1.17;;;22.90;70.00;;;;;;5078599;28;20431;-50
2022/07/06 12:16:34;;;;;;;4.70;0.93;;;22.80;70.50;;;;;;5078115;28;20462;-46
2022/07/06 12:19:02;;;;;;;3.13;1.23;;;22.60;70.90;;;;;;5078068;28;20482;-46
2022/07/06 12:21:29;;;;;;;3.03;1.17;;;22.60;71.60;;;;;;5078179;28;20475;-54
2022/07/06 12:24:00;;;;;;;2.13;1.07;;;22.60;72.30;;;;;;5078465;28;20499;-48
2022/07/06 12:26:29;;;;;;;1.60;0.90;;;22.60;71.50;;;;;;5077800;28;20431;-49
2022/07/06 12:29:07;;;;;;;4.53;1.10;;;22.40;71.00;;;;;;5077162;28;20459;-50
2022/07/06 12:31:36;;;;;;;1.53;0.93;;;22.30;71.80;;;;;;5078321;28;20438;-47
2022/07/06 12:34:03;;;;;;;2.23;1.00;;;22.30;72.80;;;;;;5077308;28;20533;-50
2022/07/06 12:36:31;;;;;;;2.90;1.20;;;22.30;73.30;;;;;;5077991;28;20454;-50
2022/07/06 12:39:00;;;;;;;3.53;1.10;;;22.10;74.50;;;;;;5077023;28;20474;-48
2022/07/06 12:41:32;;;;;;;2.20;1.10;;;22.20;75.00;;;;;;5077301;28;20505;-51
2022/07/06 12:44:07;;;;;;;2.33;1.00;;;22.40;75.30;;;;;;5076854;28;20467;-52
2022/07/06 12:46:36;;;;;;;2.87;1.43;;;22.70;74.70;;;;;;5077435;28;20438;-46
2022/07/06 12:49:12;;;;;;;2.30;1.10;;;22.80;72.30;;;;;;5077300;28;20505;-51
2022/07/06 12:51:59;;;;;;;4.10;1.87;;;22.80;72.40;;;;;;5076986;28;20455;-50
2022/07/06 12:54:30;;;;;;;4.83;1.50;;;22.90;71.80;;;;;;5077168;28;20426;-48
2022/07/06 12:57:07;;;;;;;2.17;1.20;;;23.00;71.70;;;;;;5076178;28;20471;-53
2022/07/06 12:59:38;;;;;;;6.13;1.50;;;23.10;72.10;;;;;;5076888;28;20480;-55
2022/07/06 13:02:06;;;;;;;1.60;1.20;;;23.20;72.00;;;;;;5076794;28;20447;-51